sensor_id;sensor_type;location;lat;lon;timestamp;pressure;altitude;pressure_sealevel;temperature;humidity
77799;BME280;66989;50.426;15.352;2023-07-28T00:00:39;97387.94;;;15.11;96.33
77799;BME280;66989;50.426;15.352;2023-07-28T00:03:04;97384.28;;;15.12;96.56
77799;BME280;66989;50.426;15.352;2023-07-28T00:05:29;97382.13;;;15.16;96.28
77799;BME280;66989;50.426;15.352;2023-07-28T00:07:55;97377.47;;;15.18;96.42
77799;BME280;66989;50.426;15.352;2023-07-28T00:10:20;97379.16;;;15.19;96.28
77799;BME280;66989;50.426;15.352;2023-07-28T00:12:46;97373.38;;;15.23;95.92
77799;BME280;66989;50.426;15.352;2023-07-28T00:15:11;97378.50;;;15.25;96.11
77799;BME280;66989;50.426;15.352;2023-07-28T00:17:36;97371.53;;;15.24;95.77
77799;BME280;66989;50.426;15.352;2023-07-28T00:20:02;97372.38;;;15.24;96.19
77799;BME280;66989;50.426;15.352;2023-07-28T00:22:27;97371.53;;;15.24;96.27
77799;BME280;66989;50.426;15.352;2023-07-28T00:24:53;97365.41;;;15.23;96.32
77799;BME280;66989;50.426;15.352;2023-07-28T00:27:18;97372.84;;;15.20;96.60
77799;BME280;66989;50.426;15.352;2023-07-28T00:29:43;97360.56;;;15.19;96.81
77799;BME280;66989;50.426;15.352;2023-07-28T00:32:09;97366.00;;;15.17;97.07
77799;BME280;66989;50.426;15.352;2023-07-28T00:34:34;97373.00;;;15.18;97.26
77799;BME280;66989;50.426;15.352;2023-07-28T00:36:59;97366.69;;;15.19;97.35
77799;BME280;66989;50.426;15.352;2023-07-28T00:39:25;97371.81;;;15.21;97.64
77799;BME280;66989;50.426;15.352;2023-07-28T00:41:50;97367.38;;;15.21;97.28
77799;BME280;66989;50.426;15.352;2023-07-28T00:44:15;97360.56;;;15.19;97.63
77799;BME280;66989;50.426;15.352;2023-07-28T00:46:43;97363.22;;;15.19;97.45
77799;BME280;66989;50.426;15.352;2023-07-28T00:49:08;97353.41;;;15.19;97.44
77799;BME280;66989;50.426;15.352;2023-07-28T00:51:35;97352.59;;;15.19;97.40
77799;BME280;66989;50.426;15.352;2023-07-28T00:54:00;97347.94;;;15.21;97.75
77799;BME280;66989;50.426;15.352;2023-07-28T00:56:27;97347.09;;;15.20;97.54
77799;BME280;66989;50.426;15.352;2023-07-28T00:58:52;97348.94;;;15.20;97.80
77799;BME280;66989;50.426;15.352;2023-07-28T01:01:18;97340.81;;;15.21;97.86
77799;BME280;66989;50.426;15.352;2023-07-28T01:03:44;97339.81;;;15.22;98.33
77799;BME280;66989;50.426;15.352;2023-07-28T01:06:43;97333.19;;;15.26;97.75
77799;BME280;66989;50.426;15.352;2023-07-28T01:09:15;97331.03;;;15.30;97.96
77799;BME280;66989;50.426;15.352;2023-07-28T01:11:57;97326.22;;;15.34;98.10
77799;BME280;66989;50.426;15.352;2023-07-28T01:14:23;97331.34;;;15.35;98.00
77799;BME280;66989;50.426;15.352;2023-07-28T01:16:49;97318.56;;;15.39;97.97
77799;BME280;66989;50.426;15.352;2023-07-28T01:19:17;97318.88;;;15.36;97.74
77799;BME280;66989;50.426;15.352;2023-07-28T01:21:48;97323.56;;;15.34;97.59
77799;BME280;66989;50.426;15.352;2023-07-28T01:24:24;97318.25;;;15.34;98.11
77799;BME280;66989;50.426;15.352;2023-07-28T01:26:53;97323.56;;;15.34;98.32
77799;BME280;66989;50.426;15.352;2023-07-28T01:29:21;97311.25;;;15.33;98.51
77799;BME280;66989;50.426;15.352;2023-07-28T01:31:47;97315.59;;;15.34;98.42
77799;BME280;66989;50.426;15.352;2023-07-28T01:34:13;97314.91;;;15.32;98.14
77799;BME280;66989;50.426;15.352;2023-07-28T01:36:38;97313.25;;;15.31;98.41
77799;BME280;66989;50.426;15.352;2023-07-28T01:39:03;97308.59;;;15.33;98.96
77799;BME280;66989;50.426;15.352;2023-07-28T01:41:29;97305.78;;;15.34;99.23
77799;BME280;66989;50.426;15.352;2023-07-28T01:43:54;97304.97;;;15.34;98.89
77799;BME280;66989;50.426;15.352;2023-07-28T01:46:21;97309.91;;;15.37;98.66
77799;BME280;66989;50.426;15.352;2023-07-28T01:48:46;97305.59;;;15.36;99.13
77799;BME280;66989;50.426;15.352;2023-07-28T01:51:11;97301.94;;;15.37;98.92
77799;BME280;66989;50.426;15.352;2023-07-28T01:53:37;97301.13;;;15.36;99.59
77799;BME280;66989;50.426;15.352;2023-07-28T01:56:02;97304.44;;;15.38;99.93
77799;BME280;66989;50.426;15.352;2023-07-28T01:58:28;97299.97;;;15.39;99.61
77799;BME280;66989;50.426;15.352;2023-07-28T02:00:53;97297.31;;;15.39;99.39
77799;BME280;66989;50.426;15.352;2023-07-28T02:03:18;97289.84;;;15.34;99.56
77799;BME280;66989;50.426;15.352;2023-07-28T02:05:44;97291.69;;;15.34;99.86
77799;BME280;66989;50.426;15.352;2023-07-28T02:08:09;97283.22;;;15.30;99.47
77799;BME280;66989;50.426;15.352;2023-07-28T02:10:35;97281.72;;;15.27;100.00
77799;BME280;66989;50.426;15.352;2023-07-28T02:13:00;97284.38;;;15.27;100.00
77799;BME280;66989;50.426;15.352;2023-07-28T02:15:26;97286.19;;;15.27;100.00
77799;BME280;66989;50.426;15.352;2023-07-28T02:17:51;97285.19;;;15.28;100.00
77799;BME280;66989;50.426;15.352;2023-07-28T02:20:16;97276.06;;;15.31;100.00
77799;BME280;66989;50.426;15.352;2023-07-28T02:22:42;97284.69;;;15.33;100.00
77799;BME280;66989;50.426;15.352;2023-07-28T02:25:09;97287.66;;;15.38;100.00
77799;BME280;66989;50.426;15.352;2023-07-28T02:27:35;97286.34;;;15.42;100.00
77799;BME280;66989;50.426;15.352;2023-07-28T02:30:00;97282.34;;;15.46;100.00
77799;BME280;66989;50.426;15.352;2023-07-28T02:32:27;97280.19;;;15.49;100.00
77799;BME280;66989;50.426;15.352;2023-07-28T02:34:53;97287.59;;;15.54;100.00
77799;BME280;66989;50.426;15.352;2023-07-28T02:37:19;97283.63;;;15.58;100.00
77799;BME280;66989;50.426;15.352;2023-07-28T02:39:44;97283.09;;;15.63;100.00
77799;BME280;66989;50.426;15.352;2023-07-28T02:42:10;97282.94;;;15.64;100.00
77799;BME280;66989;50.426;15.352;2023-07-28T02:44:35;97285.91;;;15.69;100.00
77799;BME280;66989;50.426;15.352;2023-07-28T02:47:00;97284.56;;;15.73;100.00
77799;BME280;66989;50.426;15.352;2023-07-28T02:49:26;97276.25;;;15.76;100.00
77799;BME280;66989;50.426;15.352;2023-07-28T02:51:51;97273.59;;;15.76;100.00
77799;BME280;66989;50.426;15.352;2023-07-28T02:54:16;97281.06;;;15.81;100.00
77799;BME280;66989;50.426;15.352;2023-07-28T02:56:42;97284.19;;;15.85;100.00
77799;BME280;66989;50.426;15.352;2023-07-28T02:59:07;97276.88;;;15.87;100.00
77799;BME280;66989;50.426;15.352;2023-07-28T03:01:33;97277.19;;;15.92;100.00
77799;BME280;66989;50.426;15.352;2023-07-28T03:04:02;97274.16;;;15.95;100.00
77799;BME280;66989;50.426;15.352;2023-07-28T03:06:28;97266.84;;;15.97;100.00
77799;BME280;66989;50.426;15.352;2023-07-28T03:08:53;97265.66;;;15.99;100.00
77799;BME280;66989;50.426;15.352;2023-07-28T03:11:19;97263.50;;;16.03;100.00
77799;BME280;66989;50.426;15.352;2023-07-28T03:13:44;97269.63;;;16.03;100.00
77799;BME280;66989;50.426;15.352;2023-07-28T03:16:10;97262.31;;;16.05;100.00
77799;BME280;66989;50.426;15.352;2023-07-28T03:18:35;97266.47;;;16.08;100.00
77799;BME280;66989;50.426;15.352;2023-07-28T03:21:01;97268.09;;;16.09;100.00
77799;BME280;66989;50.426;15.352;2023-07-28T03:23:26;97275.56;;;16.14;100.00
77799;BME280;66989;50.426;15.352;2023-07-28T03:25:52;97267.59;;;16.14;100.00
77799;BME280;66989;50.426;15.352;2023-07-28T03:28:17;97269.09;;;16.16;100.00
77799;BME280;66989;50.426;15.352;2023-07-28T03:30:42;97274.03;;;16.19;100.00
77799;BME280;66989;50.426;15.352;2023-07-28T03:33:08;97267.88;;;16.19;100.00
77799;BME280;66989;50.426;15.352;2023-07-28T03:35:33;97273.22;;;16.19;100.00
77799;BME280;66989;50.426;15.352;2023-07-28T03:37:58;97275.03;;;16.18;100.00
77799;BME280;66989;50.426;15.352;2023-07-28T03:40:24;97269.72;;;16.18;100.00
77799;BME280;66989;50.426;15.352;2023-07-28T03:42:49;97270.38;;;16.20;100.00
77799;BME280;66989;50.426;15.352;2023-07-28T03:45:15;97265.72;;;16.22;100.00
77799;BME280;66989;50.426;15.352;2023-07-28T03:47:41;97274.53;;;16.23;100.00
77799;BME280;66989;50.426;15.352;2023-07-28T03:50:06;97275.34;;;16.23;100.00
77799;BME280;66989;50.426;15.352;2023-07-28T03:52:32;97275.97;;;16.25;100.00
77799;BME280;66989;50.426;15.352;2023-07-28T03:54:57;97280.28;;;16.26;100.00
77799;BME280;66989;50.426;15.352;2023-07-28T03:57:22;97273.31;;;16.25;100.00
77799;BME280;66989;50.426;15.352;2023-07-28T03:59:48;97271.50;;;16.26;100.00
77799;BME280;66989;50.426;15.352;2023-07-28T04:02:13;97267.00;;;16.26;100.00
77799;BME280;66989;50.426;15.352;2023-07-28T04:04:38;97267.00;;;16.26;100.00
77799;BME280;66989;50.426;15.352;2023-07-28T04:07:04;97273.16;;;16.27;100.00
77799;BME280;66989;50.426;15.352;2023-07-28T04:09:29;97269.66;;;16.26;100.00
77799;BME280;66989;50.426;15.352;2023-07-28T04:11:55;97270.31;;;16.28;100.00
77799;BME280;66989;50.426;15.352;2023-07-28T04:14:20;97272.81;;;16.30;100.00
77799;BME280;66989;50.426;15.352;2023-07-28T04:16:45;97269.31;;;16.29;100.00
77799;BME280;66989;50.426;15.352;2023-07-28T04:19:11;97271.78;;;16.31;100.00
77799;BME280;66989;50.426;15.352;2023-07-28T04:21:36;97278.59;;;16.33;100.00
77799;BME280;66989;50.426;15.352;2023-07-28T04:24:06;97273.09;;;16.35;100.00
77799;BME280;66989;50.426;15.352;2023-07-28T04:26:32;97273.28;;;16.33;100.00
77799;BME280;66989;50.426;15.352;2023-07-28T04:28:57;97277.25;;;16.38;100.00
77799;BME280;66989;50.426;15.352;2023-07-28T04:31:22;97282.41;;;16.39;100.00
77799;BME280;66989;50.426;15.352;2023-07-28T04:33:48;97284.88;;;16.41;100.00
77799;BME280;66989;50.426;15.352;2023-07-28T04:36:13;97280.38;;;16.41;100.00
77799;BME280;66989;50.426;15.352;2023-07-28T04:38:38;97290.19;;;16.41;100.00
77799;BME280;66989;50.426;15.352;2023-07-28T04:41:04;97292.69;;;16.42;100.00
77799;BME280;66989;50.426;15.352;2023-07-28T04:43:29;97282.88;;;16.43;100.00
77799;BME280;66989;50.426;15.352;2023-07-28T04:45:54;97279.72;;;16.47;100.00
77799;BME280;66989;50.426;15.352;2023-07-28T04:48:20;97284.03;;;16.48;100.00
77799;BME280;66989;50.426;15.352;2023-07-28T04:50:45;97290.47;;;16.54;100.00
77799;BME280;66989;50.426;15.352;2023-07-28T04:53:11;97282.94;;;16.57;100.00
77799;BME280;66989;50.426;15.352;2023-07-28T04:55:36;97277.47;;;16.59;100.00
77799;BME280;66989;50.426;15.352;2023-07-28T04:58:01;97270.94;;;16.62;100.00
77799;BME280;66989;50.426;15.352;2023-07-28T05:00:27;97272.44;;;16.64;100.00
77799;BME280;66989;50.426;15.352;2023-07-28T05:02:52;97277.38;;;16.67;99.74
77799;BME280;66989;50.426;15.352;2023-07-28T05:05:17;97268.03;;;16.71;99.55
77799;BME280;66989;50.426;15.352;2023-07-28T05:07:43;97276.69;;;16.73;99.68
77799;BME280;66989;50.426;15.352;2023-07-28T05:10:09;97277.34;;;16.75;99.17
77799;BME280;66989;50.426;15.352;2023-07-28T05:12:34;97276.31;;;16.76;98.73
77799;BME280;66989;50.426;15.352;2023-07-28T05:15:00;97286.97;;;16.76;98.61
77799;BME280;66989;50.426;15.352;2023-07-28T05:17:26;97286.44;;;16.81;98.40
77799;BME280;66989;50.426;15.352;2023-07-28T05:19:51;97291.75;;;16.81;98.33
77799;BME280;66989;50.426;15.352;2023-07-28T05:22:17;97297.72;;;16.83;98.49
77799;BME280;66989;50.426;15.352;2023-07-28T05:24:45;97296.22;;;16.89;97.70
77799;BME280;66989;50.426;15.352;2023-07-28T05:27:11;97291.88;;;16.88;97.79
77799;BME280;66989;50.426;15.352;2023-07-28T05:29:37;97296.84;;;16.91;97.98
77799;BME280;66989;50.426;15.352;2023-07-28T05:32:03;97298.00;;;16.88;97.38
77799;BME280;66989;50.426;15.352;2023-07-28T05:34:29;97291.13;;;16.94;97.89
77799;BME280;66989;50.426;15.352;2023-07-28T05:36:54;97291.09;;;17.02;97.72
77799;BME280;66989;50.426;15.352;2023-07-28T05:39:19;97302.38;;;17.04;97.35
77799;BME280;66989;50.426;15.352;2023-07-28T05:41:46;97314.81;;;17.11;97.30
77799;BME280;66989;50.426;15.352;2023-07-28T05:44:12;97315.28;;;17.15;96.94
77799;BME280;66989;50.426;15.352;2023-07-28T05:46:37;97320.91;;;17.20;97.14
77799;BME280;66989;50.426;15.352;2023-07-28T05:49:02;97326.56;;;17.17;96.79
77799;BME280;66989;50.426;15.352;2023-07-28T05:51:28;97316.19;;;17.22;96.59
77799;BME280;66989;50.426;15.352;2023-07-28T05:53:54;97319.16;;;17.27;96.48
77799;BME280;66989;50.426;15.352;2023-07-28T05:56:20;97308.78;;;17.32;96.47
77799;BME280;66989;50.426;15.352;2023-07-28T05:58:49;97312.47;;;17.31;96.10
77799;BME280;66989;50.426;15.352;2023-07-28T06:01:14;97320.16;;;17.26;96.04
77799;BME280;66989;50.426;15.352;2023-07-28T06:03:40;97311.78;;;17.29;96.20
77799;BME280;66989;50.426;15.352;2023-07-28T06:06:05;97309.13;;;17.29;95.88
77799;BME280;66989;50.426;15.352;2023-07-28T06:08:31;97320.34;;;17.40;95.56
77799;BME280;66989;50.426;15.352;2023-07-28T06:10:56;97312.28;;;17.48;95.74
77799;BME280;66989;50.426;15.352;2023-07-28T06:13:23;97318.72;;;17.53;95.21
77799;BME280;66989;50.426;15.352;2023-07-28T06:15:48;97320.03;;;17.57;94.76
77799;BME280;66989;50.426;15.352;2023-07-28T06:18:14;97327.75;;;17.52;94.50
77799;BME280;66989;50.426;15.352;2023-07-28T06:20:43;97328.22;;;17.56;94.63
77799;BME280;66989;50.426;15.352;2023-07-28T06:23:09;97332.81;;;17.62;94.49
77799;BME280;66989;50.426;15.352;2023-07-28T06:25:34;97330.06;;;17.70;94.92
77799;BME280;66989;50.426;15.352;2023-07-28T06:28:00;97331.53;;;17.73;94.34
77799;BME280;66989;50.426;15.352;2023-07-28T06:30:25;97339.53;;;17.73;93.48
77799;BME280;66989;50.426;15.352;2023-07-28T06:32:51;97334.84;;;17.75;93.15
77799;BME280;66989;50.426;15.352;2023-07-28T06:35:16;97337.59;;;17.81;93.75
77799;BME280;66989;50.426;15.352;2023-07-28T06:37:42;97347.56;;;17.87;93.78
77799;BME280;66989;50.426;15.352;2023-07-28T06:40:09;97341.47;;;17.94;93.82
77799;BME280;66989;50.426;15.352;2023-07-28T06:42:36;97348.38;;;18.03;92.85
77799;BME280;66989;50.426;15.352;2023-07-28T06:45:03;97346.53;;;18.18;92.73
77799;BME280;66989;50.426;15.352;2023-07-28T06:47:28;97355.06;;;18.28;92.42
77799;BME280;66989;50.426;15.352;2023-07-28T06:49:54;97357.59;;;18.36;91.54
77799;BME280;66989;50.426;15.352;2023-07-28T06:52:19;97353.91;;;18.37;91.38
77799;BME280;66989;50.426;15.352;2023-07-28T06:54:45;97351.16;;;18.46;91.12
77799;BME280;66989;50.426;15.352;2023-07-28T06:57:12;97353.56;;;18.40;90.38
77799;BME280;66989;50.426;15.352;2023-07-28T06:59:37;97345.06;;;18.52;90.32
77799;BME280;66989;50.426;15.352;2023-07-28T07:02:03;97348.94;;;18.49;90.72
77799;BME280;66989;50.426;15.352;2023-07-28T07:04:28;97356.56;;;18.52;90.69
77799;BME280;66989;50.426;15.352;2023-07-28T07:06:54;97360.31;;;18.58;90.57
77799;BME280;66989;50.426;15.352;2023-07-28T07:09:19;97362.34;;;18.56;89.46
77799;BME280;66989;50.426;15.352;2023-07-28T07:11:45;97353.31;;;18.57;90.17
77799;BME280;66989;50.426;15.352;2023-07-28T07:14:10;97355.06;;;18.64;90.07
77799;BME280;66989;50.426;15.352;2023-07-28T07:16:36;97358.00;;;18.70;89.41
77799;BME280;66989;50.426;15.352;2023-07-28T07:19:02;97363.78;;;18.73;89.57
77799;BME280;66989;50.426;15.352;2023-07-28T07:21:27;97366.84;;;18.70;89.78
77799;BME280;66989;50.426;15.352;2023-07-28T07:23:53;97367.50;;;18.72;89.57
77799;BME280;66989;50.426;15.352;2023-07-28T07:26:18;97362.59;;;18.76;89.35
77799;BME280;66989;50.426;15.352;2023-07-28T07:28:44;97364.72;;;18.80;89.46
77799;BME280;66989;50.426;15.352;2023-07-28T07:31:15;97373.59;;;18.87;88.96
77799;BME280;66989;50.426;15.352;2023-07-28T07:33:41;97374.13;;;18.98;88.70
77799;BME280;66989;50.426;15.352;2023-07-28T07:36:13;97365.28;;;18.97;88.54
77799;BME280;66989;50.426;15.352;2023-07-28T07:38:39;97376.06;;;19.10;88.53
77799;BME280;66989;50.426;15.352;2023-07-28T07:41:06;97379.50;;;19.26;88.57
77799;BME280;66989;50.426;15.352;2023-07-28T07:43:31;97368.59;;;19.49;88.23
77799;BME280;66989;50.426;15.352;2023-07-28T07:45:56;97372.25;;;19.69;86.56
77799;BME280;66989;50.426;15.352;2023-07-28T07:48:22;97369.00;;;20.08;85.69
77799;BME280;66989;50.426;15.352;2023-07-28T07:50:47;97367.09;;;20.37;84.46
77799;BME280;66989;50.426;15.352;2023-07-28T07:53:13;97375.00;;;20.58;84.06
77799;BME280;66989;50.426;15.352;2023-07-28T07:55:38;97371.38;;;20.72;83.00
77799;BME280;66989;50.426;15.352;2023-07-28T07:58:03;97369.31;;;20.68;82.14
77799;BME280;66989;50.426;15.352;2023-07-28T08:00:29;97363.53;;;20.71;82.35
77799;BME280;66989;50.426;15.352;2023-07-28T08:02:54;97373.44;;;20.77;81.24
77799;BME280;66989;50.426;15.352;2023-07-28T08:05:19;97375.69;;;20.73;80.85
77799;BME280;66989;50.426;15.352;2023-07-28T08:07:46;97376.09;;;20.70;82.10
77799;BME280;66989;50.426;15.352;2023-07-28T08:10:13;97379.59;;;20.71;82.58
77799;BME280;66989;50.426;15.352;2023-07-28T08:12:38;97377.91;;;20.63;83.14
77799;BME280;66989;50.426;15.352;2023-07-28T08:15:04;97373.16;;;20.59;83.24
77799;BME280;66989;50.426;15.352;2023-07-28T08:17:30;97373.16;;;20.59;82.84
77799;BME280;66989;50.426;15.352;2023-07-28T08:19:55;97380.19;;;20.66;83.05
77799;BME280;66989;50.426;15.352;2023-07-28T08:22:21;97375.28;;;20.70;83.12
77799;BME280;66989;50.426;15.352;2023-07-28T08:24:46;97385.72;;;20.65;83.75
77799;BME280;66989;50.426;15.352;2023-07-28T08:27:11;97385.38;;;20.68;83.80
77799;BME280;66989;50.426;15.352;2023-07-28T08:29:37;97392.00;;;20.72;83.56
77799;BME280;66989;50.426;15.352;2023-07-28T08:32:02;97389.97;;;20.87;83.65
77799;BME280;66989;50.426;15.352;2023-07-28T08:34:27;97395.75;;;20.97;82.82
77799;BME280;66989;50.426;15.352;2023-07-28T08:36:53;97387.53;;;21.12;82.05
77799;BME280;66989;50.426;15.352;2023-07-28T08:39:18;97384.25;;;21.23;80.75
77799;BME280;66989;50.426;15.352;2023-07-28T08:41:44;97387.97;;;21.29;80.12
77799;BME280;66989;50.426;15.352;2023-07-28T08:44:10;97392.28;;;21.43;79.84
77799;BME280;66989;50.426;15.352;2023-07-28T08:46:36;97398.28;;;21.39;78.66
77799;BME280;66989;50.426;15.352;2023-07-28T08:49:02;97401.16;;;21.37;78.72
77799;BME280;66989;50.426;15.352;2023-07-28T08:51:28;97395.19;;;21.42;79.22
77799;BME280;66989;50.426;15.352;2023-07-28T08:53:54;97393.56;;;21.34;78.21
77799;BME280;66989;50.426;15.352;2023-07-28T08:56:20;97389.44;;;21.45;78.76
77799;BME280;66989;50.426;15.352;2023-07-28T08:58:46;97383.28;;;21.64;79.36
77799;BME280;66989;50.426;15.352;2023-07-28T09:01:12;97389.84;;;21.62;77.58
77799;BME280;66989;50.426;15.352;2023-07-28T09:03:40;97395.44;;;21.67;77.31
77799;BME280;66989;50.426;15.352;2023-07-28T09:06:07;97382.41;;;21.77;77.48
77799;BME280;66989;50.426;15.352;2023-07-28T09:08:35;97379.75;;;21.70;77.40
77799;BME280;66989;50.426;15.352;2023-07-28T09:11:03;97388.63;;;21.64;76.84
77799;BME280;66989;50.426;15.352;2023-07-28T09:13:41;97398.91;;;21.74;77.96
77799;BME280;66989;50.426;15.352;2023-07-28T09:16:20;97389.81;;;21.88;77.74
77799;BME280;66989;50.426;15.352;2023-07-28T09:18:46;97385.22;;;22.15;76.50
77799;BME280;66989;50.426;15.352;2023-07-28T09:21:20;97387.22;;;22.40;75.18
77799;BME280;66989;50.426;15.352;2023-07-28T09:23:49;97395.06;;;22.41;73.99
77799;BME280;66989;50.426;15.352;2023-07-28T09:26:15;97400.00;;;22.51;73.20
77799;BME280;66989;50.426;15.352;2023-07-28T09:28:41;97395.91;;;22.48;73.14
77799;BME280;66989;50.426;15.352;2023-07-28T09:31:07;97391.53;;;22.54;73.62
77799;BME280;66989;50.426;15.352;2023-07-28T09:33:35;97388.59;;;22.69;73.44
77799;BME280;66989;50.426;15.352;2023-07-28T09:36:12;97395.59;;;22.70;73.48
77799;BME280;66989;50.426;15.352;2023-07-28T09:38:40;97387.31;;;22.71;73.00
77799;BME280;66989;50.426;15.352;2023-07-28T09:41:08;97390.66;;;22.67;72.57
77799;BME280;66989;50.426;15.352;2023-07-28T09:43:39;97393.97;;;22.62;72.48
77799;BME280;66989;50.426;15.352;2023-07-28T09:46:06;97393.75;;;22.70;72.20
77799;BME280;66989;50.426;15.352;2023-07-28T09:48:33;97392.47;;;22.79;71.00
77799;BME280;66989;50.426;15.352;2023-07-28T09:51:12;97393.38;;;22.98;71.77
77799;BME280;66989;50.426;15.352;2023-07-28T09:53:54;97398.38;;;22.95;71.20
77799;BME280;66989;50.426;15.352;2023-07-28T09:56:22;97393.19;;;22.93;71.20
77799;BME280;66989;50.426;15.352;2023-07-28T09:58:52;97395.47;;;22.96;70.33
77799;BME280;66989;50.426;15.352;2023-07-28T10:01:19;97392.00;;;22.89;70.80
77799;BME280;66989;50.426;15.352;2023-07-28T10:03:45;97396.34;;;23.22;70.88
77799;BME280;66989;50.426;15.352;2023-07-28T10:06:10;97394.47;;;23.54;68.50
77799;BME280;66989;50.426;15.352;2023-07-28T10:08:37;97388.44;;;24.02;67.17
77799;BME280;66989;50.426;15.352;2023-07-28T10:11:02;97392.97;;;24.63;65.71
77799;BME280;66989;50.426;15.352;2023-07-28T10:13:39;97390.09;;;24.76;64.18
77799;BME280;66989;50.426;15.352;2023-07-28T10:16:08;97389.84;;;25.26;63.87
77799;BME280;66989;50.426;15.352;2023-07-28T10:18:39;97382.91;;;25.72;63.48
77799;BME280;66989;50.426;15.352;2023-07-28T10:21:05;97381.97;;;26.02;60.17
77799;BME280;66989;50.426;15.352;2023-07-28T10:23:34;97376.78;;;26.12;59.97
77799;BME280;66989;50.426;15.352;2023-07-28T10:26:04;97371.41;;;26.35;57.91
77799;BME280;66989;50.426;15.352;2023-07-28T10:28:39;97385.47;;;26.02;59.10
77799;BME280;66989;50.426;15.352;2023-07-28T10:31:11;97384.66;;;26.13;59.36
77799;BME280;66989;50.426;15.352;2023-07-28T10:33:38;97384.56;;;26.20;59.11
77799;BME280;66989;50.426;15.352;2023-07-28T10:38:39;97398.00;;;25.61;59.98
77799;BME280;66989;50.426;15.352;2023-07-28T10:41:17;97398.00;;;25.50;60.75
77799;BME280;66989;50.426;15.352;2023-07-28T10:43:44;97405.53;;;25.59;59.89
77799;BME280;66989;50.426;15.352;2023-07-28T10:46:14;97404.03;;;25.75;59.71
77799;BME280;66989;50.426;15.352;2023-07-28T10:48:45;97396.00;;;27.03;56.24
77799;BME280;66989;50.426;15.352;2023-07-28T10:51:11;97392.63;;;27.58;54.74
77799;BME280;66989;50.426;15.352;2023-07-28T10:53:38;97391.06;;;28.12;52.98
77799;BME280;66989;50.426;15.352;2023-07-28T10:56:04;97383.19;;;28.11;52.01
77799;BME280;66989;50.426;15.352;2023-07-28T10:58:33;97390.13;;;27.85;53.45
77799;BME280;66989;50.426;15.352;2023-07-28T11:01:00;97387.03;;;27.31;53.87
77799;BME280;66989;50.426;15.352;2023-07-28T11:03:27;97389.06;;;27.86;53.78
77799;BME280;66989;50.426;15.352;2023-07-28T11:05:55;97402.09;;;27.72;53.17
77799;BME280;66989;50.426;15.352;2023-07-28T11:08:21;97391.09;;;27.79;53.10
77799;BME280;66989;50.426;15.352;2023-07-28T11:10:47;97387.09;;;28.81;51.60
77799;BME280;66989;50.426;15.352;2023-07-28T11:13:13;97384.91;;;29.91;48.86
77799;BME280;66989;50.426;15.352;2023-07-28T11:15:38;97371.22;;;30.65;47.70
77799;BME280;66989;50.426;15.352;2023-07-28T11:18:04;97375.75;;;31.22;46.09
77799;BME280;66989;50.426;15.352;2023-07-28T11:20:30;97367.94;;;30.73;46.39
77799;BME280;66989;50.426;15.352;2023-07-28T11:22:59;97388.56;;;30.12;47.51
77799;BME280;66989;50.426;15.352;2023-07-28T11:25:27;97371.34;;;30.33;46.01
77799;BME280;66989;50.426;15.352;2023-07-28T11:27:53;97369.03;;;30.67;45.91
77799;BME280;66989;50.426;15.352;2023-07-28T11:30:21;97368.88;;;31.04;45.98
77799;BME280;66989;50.426;15.352;2023-07-28T11:32:48;97375.09;;;30.85;44.33
77799;BME280;66989;50.426;15.352;2023-07-28T11:35:15;97365.09;;;30.43;43.57
77799;BME280;66989;50.426;15.352;2023-07-28T11:37:44;97362.63;;;30.36;43.09
77799;BME280;66989;50.426;15.352;2023-07-28T11:40:11;97364.41;;;30.73;43.27
77799;BME280;66989;50.426;15.352;2023-07-28T11:42:44;97363.75;;;31.23;43.14
77799;BME280;66989;50.426;15.352;2023-07-28T11:45:14;97369.06;;;30.77;43.36
77799;BME280;66989;50.426;15.352;2023-07-28T11:50:26;97371.50;;;29.79;45.88
77799;BME280;66989;50.426;15.352;2023-07-28T11:52:52;97377.16;;;29.40;46.69
77799;BME280;66989;50.426;15.352;2023-07-28T11:55:18;97371.66;;;29.08;47.46
77799;BME280;66989;50.426;15.352;2023-07-28T11:57:43;97371.84;;;28.74;47.86
77799;BME280;66989;50.426;15.352;2023-07-28T12:00:09;97381.81;;;28.47;48.31
77799;BME280;66989;50.426;15.352;2023-07-28T12:02:42;97376.19;;;28.15;49.18
77799;BME280;66989;50.426;15.352;2023-07-28T12:05:19;97382.22;;;27.66;50.89
77799;BME280;66989;50.426;15.352;2023-07-28T12:07:48;97372.38;;;27.94;49.60
77799;BME280;66989;50.426;15.352;2023-07-28T12:10:14;97374.13;;;28.88;48.50
77799;BME280;66989;50.426;15.352;2023-07-28T12:12:43;97360.19;;;29.01;47.93
77799;BME280;66989;50.426;15.352;2023-07-28T12:18:07;97360.91;;;29.45;46.42
77799;BME280;66989;50.426;15.352;2023-07-28T12:20:47;97362.41;;;30.00;45.92
77799;BME280;66989;50.426;15.352;2023-07-28T12:23:20;97361.13;;;30.13;44.66
77799;BME280;66989;50.426;15.352;2023-07-28T12:25:46;97364.59;;;30.46;44.05
77799;BME280;66989;50.426;15.352;2023-07-28T12:28:12;97364.06;;;30.44;44.32
77799;BME280;66989;50.426;15.352;2023-07-28T12:30:38;97362.94;;;29.97;45.34
77799;BME280;66989;50.426;15.352;2023-07-28T12:33:04;97368.66;;;29.64;46.55
77799;BME280;66989;50.426;15.352;2023-07-28T12:35:30;97370.03;;;29.07;46.72
77799;BME280;66989;50.426;15.352;2023-07-28T12:38:01;97354.03;;;28.62;47.81
77799;BME280;66989;50.426;15.352;2023-07-28T12:40:27;97360.88;;;28.91;47.86
77799;BME280;66989;50.426;15.352;2023-07-28T12:42:54;97360.03;;;29.13;46.63
77799;BME280;66989;50.426;15.352;2023-07-28T12:45:20;97359.06;;;29.51;45.85
77799;BME280;66989;50.426;15.352;2023-07-28T12:47:47;97360.69;;;29.52;45.81
77799;BME280;66989;50.426;15.352;2023-07-28T12:50:15;97368.91;;;29.30;45.48
77799;BME280;66989;50.426;15.352;2023-07-28T12:52:41;97366.47;;;29.34;45.59